»·PEaware :: N134RX L52-L88

N134RX :: L52-L88

FLIGHT INFORMATION

Flight Status: Arrived
Operator: Privately registered:
United States
More flights under this callsign
Pilot: Christopher M. (23411)
Aircraft: CESSNA 172 SKYHAWK
(C172)
More flights by this aircraft type
Origin: L52 Oceano Co
United States
Destination: L88 New Cuyama
United States
More flights between these airports :: More routes between these airports
Route:
File this flight plan on PilotEdge
Remarks: First flight
Altitude:
(Current/Filed)
5,500ft
Speed:
(Current/Filed)
115kts
Departed: 06-Feb-19 05:50 PM
Arrived: 06-Feb-19 06:31 PM
Distance/Time
Traveled:
47nm/0:41
Distance/Time
To Go:
Arrived

Flight Plot

Page will automatically refresh every two minutes.


Map Options




Map Legend


Flown Route
Filed Route
Departure Airport
Arrival Airport
Navaid (VOR, NDB)
Fix

Horizontal Profiles

Position Reports

Time Latitude Longitude Heading Altitude Ground
Speed
06-Feb-19 17:39 35.103548 -120.624287 213 15ft 0kts
06-Feb-19 17:40 35.103548 -120.624287 213 15ft 0kts
06-Feb-19 17:41 35.103548 -120.624287 213 15ft 0kts
06-Feb-19 17:42 35.103548 -120.624287 213 15ft 0kts
06-Feb-19 17:43 35.103548 -120.624287 213 15ft 0kts
06-Feb-19 17:44 35.103267 -120.623976 123 15ft 6kts
06-Feb-19 17:45 35.101990 -120.624051 124 14ft 9kts
06-Feb-19 17:46 35.099883 -120.620121 123 17ft 15kts
06-Feb-19 17:47 35.099544 -120.619392 63 17ft 0kts
06-Feb-19 17:48 35.099544 -120.619392 62 17ft 0kts
06-Feb-19 17:49 35.099656 -120.619219 36 17ft 9kts
06-Feb-19 17:50 35.108250 -120.634226 306 522ft 72kts
06-Feb-19 17:51 35.108561 -120.651491 164 1353ft 77kts
06-Feb-19 17:52 35.087884 -120.652602 184 2262ft 80kts
06-Feb-19 17:53 35.071129 -120.641727 109 3278ft 82kts
06-Feb-19 17:54 35.065944 -120.612889 100 4193ft 88kts
06-Feb-19 17:55 35.061766 -120.580830 95 4863ft 106kts
06-Feb-19 17:56 35.059305 -120.542024 94 4953ft 121kts
06-Feb-19 17:56 35.055567 -120.507953 97 4536ft 121kts
06-Feb-19 17:57 35.051010 -120.470142 101 4516ft 108kts
06-Feb-19 17:59 35.041148 -120.429798 103 4581ft 101kts
06-Feb-19 17:59 35.035242 -120.400997 104 4806ft 106kts
06-Feb-19 18:00 35.028262 -120.366080 102 5274ft 103kts
06-Feb-19 18:01 35.020953 -120.331018 104 5604ft 114kts
06-Feb-19 18:02 35.013250 -120.290995 104 5644ft 115kts
06-Feb-19 18:03 35.006479 -120.254815 101 6103ft 107kts
06-Feb-19 18:04 35.001157 -120.219441 101 6484ft 113kts
06-Feb-19 18:05 34.995817 -120.180493 98 6648ft 120kts
06-Feb-19 18:06 34.989847 -120.138362 100 6487ft 128kts
06-Feb-19 18:07 34.982567 -120.097462 102 6584ft 121kts
06-Feb-19 18:08 34.975245 -120.056842 103 6602ft 123kts
06-Feb-19 18:09 34.968355 -120.015741 99 6590ft 123kts
06-Feb-19 18:10 34.963078 -119.975560 100 6592ft 121kts
06-Feb-19 18:11 34.957885 -119.934915 98 6258ft 123kts
06-Feb-19 18:12 34.951404 -119.893833 103 5587ft 122kts
06-Feb-19 18:13 34.942756 -119.854306 105 5054ft 116kts
06-Feb-19 18:14 34.933254 -119.815893 108 4646ft 118kts
06-Feb-19 18:15 34.922749 -119.778624 110 4473ft 116kts
06-Feb-19 18:16 34.914332 -119.739379 102 4388ft 125kts
06-Feb-19 18:17 34.919782 -119.700750 33 3853ft 121kts
06-Feb-19 18:18 34.945185 -119.680739 28 3776ft 103kts
06-Feb-19 18:19 34.958335 -119.653504 144 3340ft 109kts
06-Feb-19 18:20 34.951543 -119.679519 287 3195ft 97kts
06-Feb-19 18:21 34.940574 -119.700365 143 3122ft 93kts
06-Feb-19 18:22 34.928996 -119.673305 106 2872ft 83kts
06-Feb-19 18:23 34.936946 -119.678573 306 2284ft 83kts
06-Feb-19 18:24 34.946703 -119.702364 293 2547ft 81kts
06-Feb-19 18:25 34.943561 -119.727195 198 3261ft 109kts
06-Feb-19 18:26 34.922450 -119.710595 106 3203ft 112kts
06-Feb-19 18:27 34.914013 -119.674629 104 3144ft 98kts
06-Feb-19 18:28 34.925811 -119.652082 0 2753ft 87kts
06-Feb-19 18:29 34.935720 -119.675302 296 2313ft 72kts
06-Feb-19 18:30 34.941758 -119.690066 295 2156ft 28kts
06-Feb-19 18:31 34.942983 -119.691044 23 2152ft 0kts
06-Feb-19 18:32 34.942983 -119.691044 23 2152ft 0kts
06-Feb-19 18:33 34.942983 -119.691044 23 2152ft 0kts
06-Feb-19 18:34 34.942983 -119.691044 23 2152ft 0kts
06-Feb-19 18:35 34.942853 -119.690285 204 2155ft 0kts
06-Feb-19 18:36 34.942853 -119.690285 204 2155ft 0kts
06-Feb-19 18:37 34.942853 -119.690285 204 2155ft 0kts
06-Feb-19 18:38 34.942853 -119.690285 204 2155ft 0kts
06-Feb-19 18:39 34.942853 -119.690285 204 2155ft 0kts
06-Feb-19 18:40 34.942853 -119.690285 204 2155ft 0kts
06-Feb-19 18:41 34.942853 -119.690285 204 2155ft 0kts
06-Feb-19 18:42 34.942853 -119.690285 204 2155ft 0kts
06-Feb-19 18:43 34.942853 -119.690285 204 2155ft 0kts
06-Feb-19 18:44 34.942853 -119.690285 204 2155ft 0kts

Navigation Log

Ident Type
Flight plan parsing failed, navigation log unavailable